createdAt,value
2023-02-19T00:03:50.791Z,-62
2023-02-19T00:08:52.786Z,-60
2023-02-19T00:13:55.876Z,-61
2023-02-19T00:18:59.632Z,-61
2023-02-19T00:24:04.472Z,-65
2023-02-19T00:29:06.115Z,-65
2023-02-19T00:34:08.221Z,-64
2023-02-19T00:39:14.158Z,-61
2023-02-19T00:44:16.198Z,-62
2023-02-19T00:49:21.189Z,-62
2023-02-19T00:54:24.032Z,-62
2023-02-19T00:59:25.867Z,-62
2023-02-19T01:04:27.444Z,-63
2023-02-19T01:09:29.020Z,-62
2023-02-19T01:14:30.493Z,-62
2023-02-19T01:19:32.015Z,-64
2023-02-19T01:24:33.891Z,-64
2023-02-19T01:29:35.479Z,-63
2023-02-19T01:34:37.029Z,-63
2023-02-19T01:39:39.611Z,-64
2023-02-19T01:44:47.203Z,-64
2023-02-19T01:49:54.657Z,-64
2023-02-19T01:54:57.644Z,-63
2023-02-19T02:00:06.045Z,-62
2023-02-19T02:05:14.322Z,-64
2023-02-19T02:10:21.741Z,-62
2023-02-19T02:15:29.306Z,-62
2023-02-19T02:21:15.562Z,-62
2023-02-19T02:26:56.212Z,-61
2023-02-19T02:32:01.976Z,-62
2023-02-19T02:37:05.484Z,-61
2023-02-19T02:42:25.799Z,-62
2023-02-19T02:47:43.745Z,-61
2023-02-19T02:53:09.716Z,-63
2023-02-19T02:58:14.219Z,-63
2023-02-19T03:03:19.756Z,-63
2023-02-19T03:08:45.372Z,-65
2023-02-19T03:14:06.147Z,-63
2023-02-19T03:19:20.551Z,-62
2023-02-19T03:24:45.802Z,-60
2023-02-19T03:29:50.412Z,-61
2023-02-19T03:34:57.847Z,-62
2023-02-19T03:39:59.647Z,-62
2023-02-19T03:45:19.701Z,-63
2023-02-19T03:50:36.965Z,-61
2023-02-19T03:55:44.681Z,-63
2023-02-19T04:01:07.204Z,-62
2023-02-19T04:06:14.249Z,-63
2023-02-19T04:11:18.720Z,-62
2023-02-19T04:16:28.503Z,-62
2023-02-19T04:21:32.422Z,-63
2023-02-19T04:26:35.715Z,-61
2023-02-19T04:31:38.856Z,-62
2023-02-19T04:36:40.374Z,-60
2023-02-19T04:41:41.942Z,-61
2023-02-19T04:46:43.424Z,-61
2023-02-19T04:51:44.887Z,-66
2023-02-19T04:56:46.415Z,-59
2023-02-19T05:01:47.920Z,-62
2023-02-19T05:06:50.177Z,-62
2023-02-19T05:11:51.744Z,-60
2023-02-19T05:16:53.296Z,-62
2023-02-19T05:21:54.820Z,-63
2023-02-19T05:26:56.353Z,-63
2023-02-19T05:31:57.993Z,-62
2023-02-19T05:36:59.509Z,-62
2023-02-19T05:42:00.996Z,-61
2023-02-19T05:47:02.468Z,-61
2023-02-19T05:52:04.414Z,-60
2023-02-19T05:57:05.934Z,-61
2023-02-19T06:02:07.448Z,-62
2023-02-19T06:07:09.359Z,-62
2023-02-19T06:12:10.832Z,-62
2023-02-19T06:17:12.413Z,-63
2023-02-19T06:22:15.619Z,-63
2023-02-19T06:27:17.290Z,-62
2023-02-19T06:32:19.385Z,-63
2023-02-19T06:37:20.949Z,-63
2023-02-19T06:42:22.924Z,-60
2023-02-19T06:47:25.479Z,-60
2023-02-19T06:52:28.093Z,-60
2023-02-19T06:57:29.640Z,-61
2023-02-19T07:02:31.169Z,-60
2023-02-19T07:07:32.745Z,-62
2023-02-19T07:12:34.243Z,-61
2023-02-19T07:17:35.978Z,-61
2023-02-19T07:22:37.504Z,-61
2023-02-19T07:27:40.201Z,-61
2023-02-19T07:32:42.676Z,-63
2023-02-19T07:37:44.207Z,-59
2023-02-19T07:42:45.852Z,-59
2023-02-19T07:47:47.350Z,-59
2023-02-19T07:52:48.834Z,-61
2023-02-19T07:57:50.443Z,-61
2023-02-19T08:03:02.008Z,-59
2023-02-19T08:08:06.596Z,-59
2023-02-19T08:13:22.472Z,-60
2023-02-19T08:18:25.177Z,-61
2023-02-19T08:23:28.566Z,-61
2023-02-19T08:28:30.588Z,-63
2023-02-19T08:33:32.410Z,-61
2023-02-19T08:38:35.957Z,-58
2023-02-19T08:43:38.088Z,-58
2023-02-19T08:48:40.606Z,-59
2023-02-19T08:53:42.284Z,-59
2023-02-19T08:58:44.713Z,-58
2023-02-19T09:03:46.283Z,-60
2023-02-19T09:08:47.751Z,-60
2023-02-19T09:13:49.291Z,-58
2023-02-19T09:18:50.771Z,-58
2023-02-19T09:23:52.441Z,-57
2023-02-19T09:28:54.940Z,-59
2023-02-19T09:33:56.421Z,-58
2023-02-19T09:39:00.393Z,-57
2023-02-19T09:44:05.004Z,-56
2023-02-19T09:49:13.948Z,-56
2023-02-19T09:54:23.460Z,-57
2023-02-19T09:59:28.667Z,-58
2023-02-19T10:04:30.199Z,-59
2023-02-19T10:09:31.755Z,-60
2023-02-19T10:14:44.648Z,-58
2023-02-19T10:19:46.360Z,-59
2023-02-19T10:24:53.047Z,-58
2023-02-19T10:29:54.661Z,-60
2023-02-19T10:35:13.880Z,-60
2023-02-19T10:40:18.149Z,-62
2023-02-19T10:45:42.959Z,-61
2023-02-19T10:50:51.324Z,-66
2023-02-19T10:56:26.770Z,-60
2023-02-19T11:01:28.481Z,-61
2023-02-19T11:06:30.178Z,-62
2023-02-19T11:11:37.543Z,-62
2023-02-19T11:16:46.417Z,-63
2023-02-19T11:21:48.049Z,-61
2023-02-19T11:26:49.641Z,-60
2023-02-19T11:31:51.655Z,-61
2023-02-19T11:37:10.223Z,-61
2023-02-19T11:42:38.581Z,-64
2023-02-19T11:47:58.963Z,-62
2023-02-19T11:53:17.485Z,-61
2023-02-19T11:58:40.133Z,-62
2023-02-19T12:04:09.844Z,-62
2023-02-19T12:09:39.355Z,-62
2023-02-19T12:14:53.026Z,-62
2023-02-19T12:20:19.945Z,-62
2023-02-19T12:25:31.791Z,-62
2023-02-19T12:31:10.712Z,-62
2023-02-19T12:36:35.640Z,-62
2023-02-19T12:41:49.124Z,-62
2023-02-19T12:47:01.629Z,-61
2023-02-19T12:52:26.131Z,-62
2023-02-19T12:57:31.738Z,-62
2023-02-19T13:02:57.698Z,-62
2023-02-19T13:08:23.738Z,-62
2023-02-19T13:13:38.469Z,-63
2023-02-19T13:18:46.007Z,-62
2023-02-19T13:23:59.657Z,-62
2023-02-19T13:29:16.375Z,-63
2023-02-19T13:34:32.448Z,-61
2023-02-19T13:39:34.519Z,-64
2023-02-19T13:44:39.974Z,-69
2023-02-19T13:49:42.288Z,-61
2023-02-19T13:54:44.045Z,-64
2023-02-19T13:59:47.184Z,-66
2023-02-19T14:04:51.972Z,-67
2023-02-19T14:09:54.949Z,-60
2023-02-19T14:14:57.753Z,-61
2023-02-19T14:20:03.096Z,-63
2023-02-19T14:25:18.955Z,-64
2023-02-19T14:30:22.453Z,-64
2023-02-19T14:35:31.169Z,-61
2023-02-19T14:40:41.662Z,-64
2023-02-19T14:45:51.982Z,-59
2023-02-19T14:51:00.441Z,-63
2023-02-19T14:56:02.070Z,-61
2023-02-19T15:01:05.937Z,-63
2023-02-19T15:06:09.080Z,-66
2023-02-19T15:11:20.790Z,-59
2023-02-19T15:16:26.032Z,-59
2023-02-19T15:21:30.648Z,-58
2023-02-19T15:26:35.931Z,-60
2023-02-19T15:31:54.462Z,-62
2023-02-19T15:37:05.518Z,-63
2023-02-19T15:42:11.181Z,-60
2023-02-19T15:47:46.694Z,-61
2023-02-19T15:52:48.246Z,-59
2023-02-19T15:57:58.562Z,-60
2023-02-19T16:03:00.733Z,-60
2023-02-19T16:08:11.386Z,-60
2023-02-19T16:13:12.923Z,-59
2023-02-19T16:18:15.313Z,-59
2023-02-19T16:23:20.852Z,-58
2023-02-19T16:28:24.924Z,-59
2023-02-19T16:33:41.803Z,-58
2023-02-19T16:38:59.572Z,-59
2023-02-19T16:44:06.696Z,-59
2023-02-19T16:49:10.192Z,-59
2023-02-19T16:54:12.725Z,-60
2023-02-19T16:59:14.241Z,-60
2023-02-19T17:04:16.284Z,-61
2023-02-19T17:09:17.852Z,-62
2023-02-19T17:14:19.555Z,-63
2023-02-19T17:19:22.381Z,-63
2023-02-19T17:24:24.773Z,-63
2023-02-19T17:29:28.442Z,-62
2023-02-19T17:34:30.163Z,-61
2023-02-19T17:39:31.698Z,-63
2023-02-19T17:44:33.212Z,-64
2023-02-19T17:49:36.378Z,-63
2023-02-19T17:54:38.015Z,-63
2023-02-19T17:59:41.225Z,-63
2023-02-19T18:04:42.839Z,-65
2023-02-19T18:09:44.548Z,-65
2023-02-19T18:14:46.649Z,-65
2023-02-19T18:19:48.300Z,-66
2023-02-19T18:24:52.877Z,-66
2023-02-19T18:29:56.740Z,-66
2023-02-19T18:35:00.157Z,-66
2023-02-19T18:40:04.908Z,-66
2023-02-19T18:45:07.091Z,-65
2023-02-19T18:50:10.857Z,-66
2023-02-19T18:55:13.848Z,-64
2023-02-19T19:00:27.540Z,-59
2023-02-19T19:05:29.153Z,-59
2023-02-19T19:10:30.962Z,-60
2023-02-19T19:15:32.552Z,-60
2023-02-19T19:20:34.109Z,-59
2023-02-19T19:25:35.688Z,-61
2023-02-19T19:30:37.896Z,-62
2023-02-19T19:35:39.528Z,-62
2023-02-19T19:40:42.398Z,-59
2023-02-19T19:45:43.891Z,-60
2023-02-19T19:50:45.376Z,-60
2023-02-19T19:55:46.925Z,-60
2023-02-19T20:00:49.244Z,-61
2023-02-19T20:05:51.347Z,-62
2023-02-19T20:10:52.936Z,-59
2023-02-19T20:15:54.564Z,-60
2023-02-19T20:20:56.374Z,-62
2023-02-19T20:25:57.881Z,-61
2023-02-19T20:30:59.404Z,-62
2023-02-19T20:36:01.010Z,-59
2023-02-19T20:41:03.028Z,-61
2023-02-19T20:46:04.902Z,-61
2023-02-19T20:51:06.468Z,-60
2023-02-19T20:56:11.521Z,-61
2023-02-19T21:01:13.325Z,-61
2023-02-19T21:06:15.013Z,-62
2023-02-19T21:11:16.933Z,-62
2023-02-19T21:16:18.563Z,-59
2023-02-19T21:21:25.198Z,-60
2023-02-19T21:26:35.724Z,-62
2023-02-19T21:31:40.327Z,-60
2023-02-19T21:36:42.443Z,-59
2023-02-19T21:41:44.037Z,-60
2023-02-19T21:46:45.542Z,-61
2023-02-19T21:51:50.423Z,-61
2023-02-19T21:56:53.551Z,-60
2023-02-19T22:01:57.540Z,-63
2023-02-19T22:06:59.230Z,-61
2023-02-19T22:12:00.755Z,-61
2023-02-19T22:17:02.297Z,-62
2023-02-19T22:22:04.161Z,-62
2023-02-19T22:27:05.718Z,-61
2023-02-19T22:32:07.422Z,-62
2023-02-19T22:37:10.282Z,-62
2023-02-19T22:42:11.836Z,-63
2023-02-19T22:47:13.401Z,-62
2023-02-19T22:52:15.127Z,-62
2023-02-19T22:57:16.652Z,-62
2023-02-19T23:02:18.150Z,-63
2023-02-19T23:07:19.722Z,-61
2023-02-19T23:12:21.213Z,-62
2023-02-19T23:17:22.678Z,-61
2023-02-19T23:22:24.661Z,-62
2023-02-19T23:27:28.402Z,-63
2023-02-19T23:32:29.931Z,-63
2023-02-19T23:37:32.166Z,-62
2023-02-19T23:42:33.715Z,-60
2023-02-19T23:47:35.221Z,-60
2023-02-19T23:52:36.752Z,-61
2023-02-19T23:57:38.249Z,-63
